sensor_id;sensor_type;location;lat;lon;timestamp;P1;durP1;ratioP1;P2;durP2;ratioP2
67839;SDS011;54636;51.684;5.142;2024-01-27T00:00:53;14.55;;;3.58;;
67839;SDS011;54636;51.684;5.142;2024-01-27T00:03:19;16.73;;;2.95;;
67839;SDS011;54636;51.684;5.142;2024-01-27T00:05:44;11.80;;;3.15;;
67839;SDS011;54636;51.684;5.142;2024-01-27T00:08:09;17.52;;;3.75;;
67839;SDS011;54636;51.684;5.142;2024-01-27T00:10:35;28.02;;;4.55;;
67839;SDS011;54636;51.684;5.142;2024-01-27T00:13:00;11.07;;;3.70;;
67839;SDS011;54636;51.684;5.142;2024-01-27T00:15:26;8.63;;;3.00;;
67839;SDS011;54636;51.684;5.142;2024-01-27T00:17:51;20.30;;;3.33;;
67839;SDS011;54636;51.684;5.142;2024-01-27T00:20:16;20.23;;;2.95;;
67839;SDS011;54636;51.684;5.142;2024-01-27T00:22:42;15.85;;;3.55;;
67839;SDS011;54636;51.684;5.142;2024-01-27T00:25:07;15.55;;;3.70;;
67839;SDS011;54636;51.684;5.142;2024-01-27T00:27:33;19.63;;;3.40;;
67839;SDS011;54636;51.684;5.142;2024-01-27T00:29:58;10.60;;;3.42;;
67839;SDS011;54636;51.684;5.142;2024-01-27T00:32:23;15.55;;;3.95;;
67839;SDS011;54636;51.684;5.142;2024-01-27T00:34:49;21.25;;;3.25;;
67839;SDS011;54636;51.684;5.142;2024-01-27T00:37:15;9.57;;;2.75;;
67839;SDS011;54636;51.684;5.142;2024-01-27T00:39:40;11.07;;;3.00;;
67839;SDS011;54636;51.684;5.142;2024-01-27T00:42:05;14.15;;;3.33;;
67839;SDS011;54636;51.684;5.142;2024-01-27T00:44:31;15.35;;;3.28;;
67839;SDS011;54636;51.684;5.142;2024-01-27T00:46:56;19.30;;;3.22;;
67839;SDS011;54636;51.684;5.142;2024-01-27T00:49:22;14.13;;;3.05;;
67839;SDS011;54636;51.684;5.142;2024-01-27T00:51:47;19.30;;;3.80;;
67839;SDS011;54636;51.684;5.142;2024-01-27T00:54:12;10.60;;;2.78;;
67839;SDS011;54636;51.684;5.142;2024-01-27T00:56:38;10.27;;;2.45;;
67839;SDS011;54636;51.684;5.142;2024-01-27T00:59:03;16.38;;;3.40;;
67839;SDS011;54636;51.684;5.142;2024-01-27T01:01:28;13.40;;;3.80;;
67839;SDS011;54636;51.684;5.142;2024-01-27T01:03:54;17.40;;;2.83;;
67839;SDS011;54636;51.684;5.142;2024-01-27T01:06:19;18.55;;;4.25;;
67839;SDS011;54636;51.684;5.142;2024-01-27T01:08:44;15.23;;;3.08;;
67839;SDS011;54636;51.684;5.142;2024-01-27T01:11:10;8.43;;;3.08;;
67839;SDS011;54636;51.684;5.142;2024-01-27T01:13:35;12.43;;;3.58;;
67839;SDS011;54636;51.684;5.142;2024-01-27T01:16:01;13.43;;;3.30;;
67839;SDS011;54636;51.684;5.142;2024-01-27T01:18:28;10.02;;;2.75;;
67839;SDS011;54636;51.684;5.142;2024-01-27T01:20:53;11.15;;;3.65;;
67839;SDS011;54636;51.684;5.142;2024-01-27T01:23:19;19.63;;;4.15;;
67839;SDS011;54636;51.684;5.142;2024-01-27T01:25:44;11.63;;;3.70;;
67839;SDS011;54636;51.684;5.142;2024-01-27T01:28:09;18.85;;;4.68;;
67839;SDS011;54636;51.684;5.142;2024-01-27T01:30:35;13.27;;;4.65;;
67839;SDS011;54636;51.684;5.142;2024-01-27T01:33:01;21.95;;;3.83;;
67839;SDS011;54636;51.684;5.142;2024-01-27T01:35:26;14.02;;;3.33;;
67839;SDS011;54636;51.684;5.142;2024-01-27T01:37:52;19.65;;;3.88;;
67839;SDS011;54636;51.684;5.142;2024-01-27T01:40:17;19.45;;;4.13;;
67839;SDS011;54636;51.684;5.142;2024-01-27T01:42:43;19.83;;;4.93;;
67839;SDS011;54636;51.684;5.142;2024-01-27T01:45:09;23.33;;;5.50;;
67839;SDS011;54636;51.684;5.142;2024-01-27T01:47:37;25.58;;;5.85;;
67839;SDS011;54636;51.684;5.142;2024-01-27T01:50:03;18.63;;;5.65;;
67839;SDS011;54636;51.684;5.142;2024-01-27T01:52:30;15.38;;;5.00;;
67839;SDS011;54636;51.684;5.142;2024-01-27T01:54:56;30.05;;;6.03;;
67839;SDS011;54636;51.684;5.142;2024-01-27T01:57:21;20.88;;;5.55;;
67839;SDS011;54636;51.684;5.142;2024-01-27T01:59:47;21.60;;;6.18;;
67839;SDS011;54636;51.684;5.142;2024-01-27T02:02:12;15.77;;;7.72;;
67839;SDS011;54636;51.684;5.142;2024-01-27T02:04:41;20.48;;;5.38;;
67839;SDS011;54636;51.684;5.142;2024-01-27T02:07:08;18.30;;;5.22;;
67839;SDS011;54636;51.684;5.142;2024-01-27T02:09:33;23.20;;;5.65;;
67839;SDS011;54636;51.684;5.142;2024-01-27T02:11:59;20.13;;;5.38;;
67839;SDS011;54636;51.684;5.142;2024-01-27T02:14:24;27.02;;;6.75;;
67839;SDS011;54636;51.684;5.142;2024-01-27T02:16:50;17.38;;;5.70;;
67839;SDS011;54636;51.684;5.142;2024-01-27T02:19:15;12.75;;;5.38;;
67839;SDS011;54636;51.684;5.142;2024-01-27T02:21:41;22.60;;;6.53;;
67839;SDS011;54636;51.684;5.142;2024-01-27T02:24:07;21.08;;;5.68;;
67839;SDS011;54636;51.684;5.142;2024-01-27T02:26:32;15.85;;;5.70;;
67839;SDS011;54636;51.684;5.142;2024-01-27T02:28:57;20.13;;;6.10;;
67839;SDS011;54636;51.684;5.142;2024-01-27T02:31:23;29.13;;;6.85;;
67839;SDS011;54636;51.684;5.142;2024-01-27T02:33:48;22.45;;;5.88;;
67839;SDS011;54636;51.684;5.142;2024-01-27T02:36:14;17.55;;;6.45;;
67839;SDS011;54636;51.684;5.142;2024-01-27T02:38:39;16.63;;;4.35;;
67839;SDS011;54636;51.684;5.142;2024-01-27T02:41:04;14.52;;;5.60;;
67839;SDS011;54636;51.684;5.142;2024-01-27T02:43:30;25.42;;;6.35;;
67839;SDS011;54636;51.684;5.142;2024-01-27T02:45:55;24.33;;;7.15;;
67839;SDS011;54636;51.684;5.142;2024-01-27T02:48:20;27.00;;;6.50;;
67839;SDS011;54636;51.684;5.142;2024-01-27T02:50:46;20.67;;;6.28;;
67839;SDS011;54636;51.684;5.142;2024-01-27T02:53:11;14.43;;;5.30;;
67839;SDS011;54636;51.684;5.142;2024-01-27T02:55:36;31.00;;;6.40;;
67839;SDS011;54636;51.684;5.142;2024-01-27T02:58:02;18.90;;;5.70;;
67839;SDS011;54636;51.684;5.142;2024-01-27T03:00:27;22.63;;;7.68;;
67839;SDS011;54636;51.684;5.142;2024-01-27T03:02:53;17.38;;;6.50;;
67839;SDS011;54636;51.684;5.142;2024-01-27T03:05:19;14.52;;;5.60;;
67839;SDS011;54636;51.684;5.142;2024-01-27T03:07:45;22.95;;;6.47;;
67839;SDS011;54636;51.684;5.142;2024-01-27T03:10:10;19.35;;;5.25;;
67839;SDS011;54636;51.684;5.142;2024-01-27T03:12:36;17.85;;;6.07;;
67839;SDS011;54636;51.684;5.142;2024-01-27T03:15:01;20.15;;;6.45;;
67839;SDS011;54636;51.684;5.142;2024-01-27T03:17:27;16.33;;;6.15;;
67839;SDS011;54636;51.684;5.142;2024-01-27T03:19:52;20.73;;;6.38;;
67839;SDS011;54636;51.684;5.142;2024-01-27T03:22:18;17.63;;;6.25;;
67839;SDS011;54636;51.684;5.142;2024-01-27T03:24:43;18.70;;;6.90;;
67839;SDS011;54636;51.684;5.142;2024-01-27T03:27:08;12.77;;;5.82;;
67839;SDS011;54636;51.684;5.142;2024-01-27T03:29:34;17.42;;;6.75;;
67839;SDS011;54636;51.684;5.142;2024-01-27T03:31:59;18.83;;;6.07;;
67839;SDS011;54636;51.684;5.142;2024-01-27T03:34:24;21.80;;;7.18;;
67839;SDS011;54636;51.684;5.142;2024-01-27T03:36:52;40.53;;;7.10;;
67839;SDS011;54636;51.684;5.142;2024-01-27T03:39:17;18.80;;;6.65;;
67839;SDS011;54636;51.684;5.142;2024-01-27T03:41:43;15.23;;;6.75;;
67839;SDS011;54636;51.684;5.142;2024-01-27T03:44:08;23.27;;;7.65;;
67839;SDS011;54636;51.684;5.142;2024-01-27T03:46:33;17.65;;;6.10;;
67839;SDS011;54636;51.684;5.142;2024-01-27T03:48:59;27.85;;;7.05;;
67839;SDS011;54636;51.684;5.142;2024-01-27T03:51:24;12.18;;;6.13;;
67839;SDS011;54636;51.684;5.142;2024-01-27T03:53:51;23.75;;;7.80;;
67839;SDS011;54636;51.684;5.142;2024-01-27T03:56:16;22.60;;;6.97;;
67839;SDS011;54636;51.684;5.142;2024-01-27T03:58:42;24.05;;;6.70;;
67839;SDS011;54636;51.684;5.142;2024-01-27T04:01:07;21.80;;;7.28;;
67839;SDS011;54636;51.684;5.142;2024-01-27T04:03:32;17.00;;;7.45;;
67839;SDS011;54636;51.684;5.142;2024-01-27T04:05:58;21.05;;;6.70;;
67839;SDS011;54636;51.684;5.142;2024-01-27T04:08:23;17.45;;;6.75;;
67839;SDS011;54636;51.684;5.142;2024-01-27T04:10:49;20.80;;;6.72;;
67839;SDS011;54636;51.684;5.142;2024-01-27T04:13:15;20.65;;;6.85;;
67839;SDS011;54636;51.684;5.142;2024-01-27T04:15:40;19.05;;;6.68;;
67839;SDS011;54636;51.684;5.142;2024-01-27T04:18:06;35.17;;;8.07;;
67839;SDS011;54636;51.684;5.142;2024-01-27T04:20:36;25.50;;;6.93;;
67839;SDS011;54636;51.684;5.142;2024-01-27T04:23:02;25.63;;;7.78;;
67839;SDS011;54636;51.684;5.142;2024-01-27T04:25:28;28.02;;;8.00;;
67839;SDS011;54636;51.684;5.142;2024-01-27T04:27:53;19.83;;;7.88;;
67839;SDS011;54636;51.684;5.142;2024-01-27T04:30:19;19.33;;;6.55;;
67839;SDS011;54636;51.684;5.142;2024-01-27T04:32:44;17.52;;;7.55;;
67839;SDS011;54636;51.684;5.142;2024-01-27T04:35:10;26.73;;;8.32;;
67839;SDS011;54636;51.684;5.142;2024-01-27T04:37:36;19.67;;;7.32;;
67839;SDS011;54636;51.684;5.142;2024-01-27T04:40:02;13.88;;;6.70;;
67839;SDS011;54636;51.684;5.142;2024-01-27T04:42:32;19.95;;;7.72;;
67839;SDS011;54636;51.684;5.142;2024-01-27T04:44:59;21.95;;;7.68;;
67839;SDS011;54636;51.684;5.142;2024-01-27T04:47:25;23.40;;;7.05;;
67839;SDS011;54636;51.684;5.142;2024-01-27T04:49:50;14.27;;;7.47;;
67839;SDS011;54636;51.684;5.142;2024-01-27T04:52:16;19.52;;;7.60;;
67839;SDS011;54636;51.684;5.142;2024-01-27T04:54:41;17.05;;;7.65;;
67839;SDS011;54636;51.684;5.142;2024-01-27T04:57:06;18.88;;;7.60;;
67839;SDS011;54636;51.684;5.142;2024-01-27T04:59:32;24.63;;;7.85;;
67839;SDS011;54636;51.684;5.142;2024-01-27T05:01:57;13.98;;;6.13;;
67839;SDS011;54636;51.684;5.142;2024-01-27T05:04:23;19.88;;;7.20;;
67839;SDS011;54636;51.684;5.142;2024-01-27T05:06:51;21.45;;;7.40;;
67839;SDS011;54636;51.684;5.142;2024-01-27T05:09:17;20.02;;;7.43;;
67839;SDS011;54636;51.684;5.142;2024-01-27T05:11:42;17.60;;;7.60;;
67839;SDS011;54636;51.684;5.142;2024-01-27T05:14:10;23.98;;;8.07;;
67839;SDS011;54636;51.684;5.142;2024-01-27T05:16:36;16.33;;;6.95;;
67839;SDS011;54636;51.684;5.142;2024-01-27T05:19:01;24.30;;;7.82;;
67839;SDS011;54636;51.684;5.142;2024-01-27T05:21:26;18.45;;;7.57;;
67839;SDS011;54636;51.684;5.142;2024-01-27T05:23:52;19.88;;;7.47;;
67839;SDS011;54636;51.684;5.142;2024-01-27T05:26:17;15.27;;;7.43;;
67839;SDS011;54636;51.684;5.142;2024-01-27T05:28:43;20.75;;;8.32;;
67839;SDS011;54636;51.684;5.142;2024-01-27T05:31:08;15.95;;;6.95;;
67839;SDS011;54636;51.684;5.142;2024-01-27T05:33:37;22.58;;;7.72;;
67839;SDS011;54636;51.684;5.142;2024-01-27T05:36:04;19.30;;;7.35;;
67839;SDS011;54636;51.684;5.142;2024-01-27T05:38:30;32.03;;;8.68;;
67839;SDS011;54636;51.684;5.142;2024-01-27T05:40:56;18.98;;;7.10;;
67839;SDS011;54636;51.684;5.142;2024-01-27T05:43:22;22.10;;;8.00;;
67839;SDS011;54636;51.684;5.142;2024-01-27T05:45:48;12.55;;;7.68;;
67839;SDS011;54636;51.684;5.142;2024-01-27T05:48:14;22.08;;;8.50;;
67839;SDS011;54636;51.684;5.142;2024-01-27T05:50:41;21.48;;;7.78;;
67839;SDS011;54636;51.684;5.142;2024-01-27T05:53:07;22.27;;;7.85;;
67839;SDS011;54636;51.684;5.142;2024-01-27T05:55:33;22.83;;;7.32;;
67839;SDS011;54636;51.684;5.142;2024-01-27T05:57:59;19.45;;;6.97;;
67839;SDS011;54636;51.684;5.142;2024-01-27T06:00:24;27.35;;;8.00;;
67839;SDS011;54636;51.684;5.142;2024-01-27T06:02:49;23.33;;;7.60;;
67839;SDS011;54636;51.684;5.142;2024-01-27T06:05:15;12.07;;;5.90;;
67839;SDS011;54636;51.684;5.142;2024-01-27T06:07:40;20.58;;;8.45;;
67839;SDS011;54636;51.684;5.142;2024-01-27T06:10:08;20.52;;;7.80;;
67839;SDS011;54636;51.684;5.142;2024-01-27T06:12:33;20.25;;;8.70;;
67839;SDS011;54636;51.684;5.142;2024-01-27T06:14:59;19.42;;;7.57;;
67839;SDS011;54636;51.684;5.142;2024-01-27T06:17:25;22.92;;;8.40;;
67839;SDS011;54636;51.684;5.142;2024-01-27T06:19:50;14.48;;;6.43;;
67839;SDS011;54636;51.684;5.142;2024-01-27T06:22:15;16.83;;;8.73;;
67839;SDS011;54636;51.684;5.142;2024-01-27T06:24:42;17.98;;;8.05;;
67839;SDS011;54636;51.684;5.142;2024-01-27T06:27:08;17.88;;;8.20;;
67839;SDS011;54636;51.684;5.142;2024-01-27T06:29:34;15.18;;;7.32;;
67839;SDS011;54636;51.684;5.142;2024-01-27T06:31:59;17.55;;;7.85;;
67839;SDS011;54636;51.684;5.142;2024-01-27T06:34:25;23.38;;;7.53;;
67839;SDS011;54636;51.684;5.142;2024-01-27T06:36:50;22.77;;;7.57;;
67839;SDS011;54636;51.684;5.142;2024-01-27T06:39:15;18.42;;;7.50;;
67839;SDS011;54636;51.684;5.142;2024-01-27T06:41:41;23.13;;;8.60;;
67839;SDS011;54636;51.684;5.142;2024-01-27T06:44:06;20.27;;;8.32;;
67839;SDS011;54636;51.684;5.142;2024-01-27T06:46:32;34.70;;;8.77;;
67839;SDS011;54636;51.684;5.142;2024-01-27T06:48:58;16.88;;;7.70;;
67839;SDS011;54636;51.684;5.142;2024-01-27T06:51:23;24.95;;;8.43;;
67839;SDS011;54636;51.684;5.142;2024-01-27T06:53:49;18.05;;;8.57;;
67839;SDS011;54636;51.684;5.142;2024-01-27T06:56:14;24.08;;;8.43;;
67839;SDS011;54636;51.684;5.142;2024-01-27T06:58:39;18.65;;;8.02;;
67839;SDS011;54636;51.684;5.142;2024-01-27T07:01:06;19.08;;;5.82;;
67839;SDS011;54636;51.684;5.142;2024-01-27T07:03:32;7.93;;;4.80;;
67839;SDS011;54636;51.684;5.142;2024-01-27T07:05:57;14.95;;;6.18;;
67839;SDS011;54636;51.684;5.142;2024-01-27T07:08:26;16.63;;;7.85;;
67839;SDS011;54636;51.684;5.142;2024-01-27T07:10:51;20.50;;;8.27;;
67839;SDS011;54636;51.684;5.142;2024-01-27T07:13:17;18.38;;;9.68;;
67839;SDS011;54636;51.684;5.142;2024-01-27T07:15:42;15.10;;;6.07;;
67839;SDS011;54636;51.684;5.142;2024-01-27T07:18:07;22.25;;;6.70;;
67839;SDS011;54636;51.684;5.142;2024-01-27T07:20:34;18.55;;;8.25;;
67839;SDS011;54636;51.684;5.142;2024-01-27T07:23:00;31.33;;;9.75;;
67839;SDS011;54636;51.684;5.142;2024-01-27T07:25:26;14.32;;;7.03;;
67839;SDS011;54636;51.684;5.142;2024-01-27T07:27:53;11.27;;;6.10;;
67839;SDS011;54636;51.684;5.142;2024-01-27T07:30:18;16.25;;;9.13;;
67839;SDS011;54636;51.684;5.142;2024-01-27T07:32:44;17.33;;;7.10;;
67839;SDS011;54636;51.684;5.142;2024-01-27T07:35:10;28.48;;;9.00;;
67839;SDS011;54636;51.684;5.142;2024-01-27T07:37:35;17.38;;;7.40;;
67839;SDS011;54636;51.684;5.142;2024-01-27T07:40:01;15.45;;;9.48;;
67839;SDS011;54636;51.684;5.142;2024-01-27T07:42:27;20.85;;;9.02;;
67839;SDS011;54636;51.684;5.142;2024-01-27T07:44:52;22.25;;;9.07;;
67839;SDS011;54636;51.684;5.142;2024-01-27T07:47:18;17.60;;;8.27;;
67839;SDS011;54636;51.684;5.142;2024-01-27T07:49:43;9.70;;;5.63;;
67839;SDS011;54636;51.684;5.142;2024-01-27T07:52:09;13.95;;;7.45;;
67839;SDS011;54636;51.684;5.142;2024-01-27T07:54:35;21.33;;;9.48;;
67839;SDS011;54636;51.684;5.142;2024-01-27T07:57:05;19.92;;;9.27;;
67839;SDS011;54636;51.684;5.142;2024-01-27T07:59:30;25.90;;;9.18;;
67839;SDS011;54636;51.684;5.142;2024-01-27T08:01:56;37.28;;;11.00;;
67839;SDS011;54636;51.684;5.142;2024-01-27T08:04:21;10.50;;;6.82;;
67839;SDS011;54636;51.684;5.142;2024-01-27T08:06:47;25.17;;;11.27;;
67839;SDS011;54636;51.684;5.142;2024-01-27T08:09:15;31.77;;;11.38;;
67839;SDS011;54636;51.684;5.142;2024-01-27T08:11:41;36.50;;;13.40;;
67839;SDS011;54636;51.684;5.142;2024-01-27T08:14:07;25.45;;;11.60;;
67839;SDS011;54636;51.684;5.142;2024-01-27T08:16:32;28.90;;;14.43;;
67839;SDS011;54636;51.684;5.142;2024-01-27T08:18:57;29.52;;;13.77;;
67839;SDS011;54636;51.684;5.142;2024-01-27T08:21:23;34.85;;;15.52;;
67839;SDS011;54636;51.684;5.142;2024-01-27T08:23:48;30.63;;;13.82;;
67839;SDS011;54636;51.684;5.142;2024-01-27T08:26:14;26.20;;;10.88;;
67839;SDS011;54636;51.684;5.142;2024-01-27T08:28:40;25.88;;;11.93;;
67839;SDS011;54636;51.684;5.142;2024-01-27T08:31:05;26.13;;;11.05;;
67839;SDS011;54636;51.684;5.142;2024-01-27T08:33:31;29.25;;;10.55;;
67839;SDS011;54636;51.684;5.142;2024-01-27T08:35:57;27.13;;;11.77;;
67839;SDS011;54636;51.684;5.142;2024-01-27T08:38:22;26.95;;;10.70;;
67839;SDS011;54636;51.684;5.142;2024-01-27T08:40:47;25.42;;;11.07;;
67839;SDS011;54636;51.684;5.142;2024-01-27T08:43:13;21.83;;;11.32;;
67839;SDS011;54636;51.684;5.142;2024-01-27T08:45:38;21.20;;;10.68;;
67839;SDS011;54636;51.684;5.142;2024-01-27T08:48:05;22.77;;;12.10;;
67839;SDS011;54636;51.684;5.142;2024-01-27T08:50:31;25.58;;;11.23;;
67839;SDS011;54636;51.684;5.142;2024-01-27T08:52:56;23.10;;;11.85;;
67839;SDS011;54636;51.684;5.142;2024-01-27T08:55:22;24.13;;;11.20;;
67839;SDS011;54636;51.684;5.142;2024-01-27T08:57:49;26.23;;;11.18;;
67839;SDS011;54636;51.684;5.142;2024-01-27T09:00:15;29.67;;;10.27;;
67839;SDS011;54636;51.684;5.142;2024-01-27T09:02:42;22.15;;;10.27;;
67839;SDS011;54636;51.684;5.142;2024-01-27T09:05:07;12.95;;;7.93;;
67839;SDS011;54636;51.684;5.142;2024-01-27T09:07:33;26.10;;;11.50;;
67839;SDS011;54636;51.684;5.142;2024-01-27T09:09:59;19.15;;;10.57;;
67839;SDS011;54636;51.684;5.142;2024-01-27T09:12:24;24.83;;;11.18;;
67839;SDS011;54636;51.684;5.142;2024-01-27T09:14:50;22.50;;;9.15;;
67839;SDS011;54636;51.684;5.142;2024-01-27T09:17:16;28.48;;;12.57;;
67839;SDS011;54636;51.684;5.142;2024-01-27T09:19:41;24.85;;;10.93;;
67839;SDS011;54636;51.684;5.142;2024-01-27T09:22:07;35.72;;;11.85;;
67839;SDS011;54636;51.684;5.142;2024-01-27T09:24:33;15.80;;;9.98;;
67839;SDS011;54636;51.684;5.142;2024-01-27T09:26:58;27.60;;;10.77;;
67839;SDS011;54636;51.684;5.142;2024-01-27T09:29:23;31.58;;;9.90;;
67839;SDS011;54636;51.684;5.142;2024-01-27T09:31:49;28.83;;;11.60;;
67839;SDS011;54636;51.684;5.142;2024-01-27T09:34:14;21.92;;;10.85;;
67839;SDS011;54636;51.684;5.142;2024-01-27T09:36:40;22.33;;;10.77;;
67839;SDS011;54636;51.684;5.142;2024-01-27T09:39:05;22.60;;;9.85;;
67839;SDS011;54636;51.684;5.142;2024-01-27T09:41:31;26.45;;;11.45;;
67839;SDS011;54636;51.684;5.142;2024-01-27T09:43:58;27.38;;;10.95;;
67839;SDS011;54636;51.684;5.142;2024-01-27T09:46:26;21.73;;;10.85;;
67839;SDS011;54636;51.684;5.142;2024-01-27T09:48:52;21.23;;;10.55;;
67839;SDS011;54636;51.684;5.142;2024-01-27T09:51:18;27.08;;;11.43;;
67839;SDS011;54636;51.684;5.142;2024-01-27T09:53:45;23.08;;;10.70;;
67839;SDS011;54636;51.684;5.142;2024-01-27T09:56:10;25.52;;;10.73;;
67839;SDS011;54636;51.684;5.142;2024-01-27T09:58:42;26.73;;;11.52;;
67839;SDS011;54636;51.684;5.142;2024-01-27T10:01:09;29.83;;;11.77;;
67839;SDS011;54636;51.684;5.142;2024-01-27T10:03:35;25.25;;;10.98;;
67839;SDS011;54636;51.684;5.142;2024-01-27T10:06:03;26.10;;;10.35;;
67839;SDS011;54636;51.684;5.142;2024-01-27T10:08:35;18.45;;;9.93;;
67839;SDS011;54636;51.684;5.142;2024-01-27T10:11:04;23.83;;;10.40;;
67839;SDS011;54636;51.684;5.142;2024-01-27T10:13:34;21.45;;;9.43;;
67839;SDS011;54636;51.684;5.142;2024-01-27T10:16:03;19.35;;;9.77;;
67839;SDS011;54636;51.684;5.142;2024-01-27T10:20:55;25.90;;;10.65;;
67839;SDS011;54636;51.684;5.142;2024-01-27T10:23:21;21.88;;;9.73;;
67839;SDS011;54636;51.684;5.142;2024-01-27T10:25:47;21.70;;;10.40;;
67839;SDS011;54636;51.684;5.142;2024-01-27T10:28:12;24.90;;;9.68;;
67839;SDS011;54636;51.684;5.142;2024-01-27T10:30:38;24.75;;;9.30;;
67839;SDS011;54636;51.684;5.142;2024-01-27T10:33:03;21.05;;;9.95;;
67839;SDS011;54636;51.684;5.142;2024-01-27T10:35:29;24.05;;;8.82;;
67839;SDS011;54636;51.684;5.142;2024-01-27T10:37:55;20.33;;;9.18;;
67839;SDS011;54636;51.684;5.142;2024-01-27T10:40:22;22.27;;;8.10;;
67839;SDS011;54636;51.684;5.142;2024-01-27T10:43:02;14.95;;;8.23;;
67839;SDS011;54636;51.684;5.142;2024-01-27T10:45:36;18.92;;;8.32;;
67839;SDS011;54636;51.684;5.142;2024-01-27T10:48:03;21.75;;;7.40;;
67839;SDS011;54636;51.684;5.142;2024-01-27T10:50:29;20.05;;;7.53;;
67839;SDS011;54636;51.684;5.142;2024-01-27T10:52:57;16.35;;;7.50;;
67839;SDS011;54636;51.684;5.142;2024-01-27T10:55:24;17.88;;;7.32;;
67839;SDS011;54636;51.684;5.142;2024-01-27T10:57:50;21.17;;;7.40;;
67839;SDS011;54636;51.684;5.142;2024-01-27T11:00:18;29.00;;;7.97;;
67839;SDS011;54636;51.684;5.142;2024-01-27T11:02:44;14.40;;;6.70;;
67839;SDS011;54636;51.684;5.142;2024-01-27T11:05:10;14.77;;;6.03;;
67839;SDS011;54636;51.684;5.142;2024-01-27T11:07:35;14.07;;;5.47;;
67839;SDS011;54636;51.684;5.142;2024-01-27T11:10:03;27.63;;;6.95;;
67839;SDS011;54636;51.684;5.142;2024-01-27T11:12:29;24.75;;;6.38;;
67839;SDS011;54636;51.684;5.142;2024-01-27T11:14:56;6.93;;;3.85;;
67839;SDS011;54636;51.684;5.142;2024-01-27T11:17:24;13.43;;;5.38;;
67839;SDS011;54636;51.684;5.142;2024-01-27T11:19:50;12.25;;;4.13;;
67839;SDS011;54636;51.684;5.142;2024-01-27T11:22:28;10.82;;;3.67;;
67839;SDS011;54636;51.684;5.142;2024-01-27T11:27:31;19.23;;;4.53;;
67839;SDS011;54636;51.684;5.142;2024-01-27T11:29:57;17.85;;;5.45;;
67839;SDS011;54636;51.684;5.142;2024-01-27T11:32:22;11.98;;;4.38;;
67839;SDS011;54636;51.684;5.142;2024-01-27T11:34:48;19.40;;;5.30;;
67839;SDS011;54636;51.684;5.142;2024-01-27T11:37:14;12.88;;;3.55;;
67839;SDS011;54636;51.684;5.142;2024-01-27T11:39:40;12.30;;;4.10;;
67839;SDS011;54636;51.684;5.142;2024-01-27T11:42:09;13.45;;;4.68;;
67839;SDS011;54636;51.684;5.142;2024-01-27T11:44:39;11.38;;;4.43;;
67839;SDS011;54636;51.684;5.142;2024-01-27T11:47:07;20.58;;;4.50;;
67839;SDS011;54636;51.684;5.142;2024-01-27T11:49:39;11.60;;;3.95;;
67839;SDS011;54636;51.684;5.142;2024-01-27T11:52:05;20.58;;;5.15;;
67839;SDS011;54636;51.684;5.142;2024-01-27T11:54:31;19.92;;;5.07;;
67839;SDS011;54636;51.684;5.142;2024-01-27T11:56:57;9.10;;;4.18;;
67839;SDS011;54636;51.684;5.142;2024-01-27T11:59:22;17.67;;;4.78;;
67839;SDS011;54636;51.684;5.142;2024-01-27T12:01:48;11.73;;;4.30;;
67839;SDS011;54636;51.684;5.142;2024-01-27T12:04:14;16.65;;;4.30;;
67839;SDS011;54636;51.684;5.142;2024-01-27T12:06:40;18.00;;;4.55;;
67839;SDS011;54636;51.684;5.142;2024-01-27T12:09:06;19.27;;;5.68;;
67839;SDS011;54636;51.684;5.142;2024-01-27T12:11:37;13.15;;;4.03;;
67839;SDS011;54636;51.684;5.142;2024-01-27T12:14:03;14.20;;;5.13;;
67839;SDS011;54636;51.684;5.142;2024-01-27T12:16:28;11.85;;;4.45;;
67839;SDS011;54636;51.684;5.142;2024-01-27T12:18:54;13.75;;;4.80;;
67839;SDS011;54636;51.684;5.142;2024-01-27T12:21:19;15.02;;;5.55;;
67839;SDS011;54636;51.684;5.142;2024-01-27T12:23:51;17.83;;;4.65;;
67839;SDS011;54636;51.684;5.142;2024-01-27T12:26:19;12.27;;;4.25;;
67839;SDS011;54636;51.684;5.142;2024-01-27T12:28:46;18.15;;;4.38;;
67839;SDS011;54636;51.684;5.142;2024-01-27T12:31:12;14.15;;;5.15;;
67839;SDS011;54636;51.684;5.142;2024-01-27T12:33:40;17.52;;;4.30;;
67839;SDS011;54636;51.684;5.142;2024-01-27T12:36:07;18.20;;;4.25;;
67839;SDS011;54636;51.684;5.142;2024-01-27T12:38:33;19.08;;;4.80;;
67839;SDS011;54636;51.684;5.142;2024-01-27T12:40:58;23.45;;;5.80;;
67839;SDS011;54636;51.684;5.142;2024-01-27T12:43:24;20.45;;;4.55;;
67839;SDS011;54636;51.684;5.142;2024-01-27T12:45:49;13.38;;;4.60;;
67839;SDS011;54636;51.684;5.142;2024-01-27T12:48:14;22.00;;;4.85;;
67839;SDS011;54636;51.684;5.142;2024-01-27T12:50:40;15.23;;;4.30;;
67839;SDS011;54636;51.684;5.142;2024-01-27T12:53:05;13.38;;;4.65;;
67839;SDS011;54636;51.684;5.142;2024-01-27T12:55:31;10.13;;;4.35;;
67839;SDS011;54636;51.684;5.142;2024-01-27T12:57:56;22.50;;;5.30;;
67839;SDS011;54636;51.684;5.142;2024-01-27T13:00:23;14.00;;;4.68;;
67839;SDS011;54636;51.684;5.142;2024-01-27T13:02:48;7.13;;;3.67;;
67839;SDS011;54636;51.684;5.142;2024-01-27T13:05:13;20.38;;;5.78;;
67839;SDS011;54636;51.684;5.142;2024-01-27T13:07:39;28.17;;;5.82;;
67839;SDS011;54636;51.684;5.142;2024-01-27T13:10:04;17.58;;;4.10;;
67839;SDS011;54636;51.684;5.142;2024-01-27T13:12:30;17.95;;;4.80;;
67839;SDS011;54636;51.684;5.142;2024-01-27T13:14:56;13.85;;;4.65;;
67839;SDS011;54636;51.684;5.142;2024-01-27T13:17:21;22.58;;;5.20;;
67839;SDS011;54636;51.684;5.142;2024-01-27T13:19:47;17.05;;;5.40;;
67839;SDS011;54636;51.684;5.142;2024-01-27T13:22:12;17.65;;;5.55;;
67839;SDS011;54636;51.684;5.142;2024-01-27T13:24:38;15.32;;;5.10;;
67839;SDS011;54636;51.684;5.142;2024-01-27T13:27:03;18.27;;;4.53;;
67839;SDS011;54636;51.684;5.142;2024-01-27T13:29:31;22.83;;;6.55;;
67839;SDS011;54636;51.684;5.142;2024-01-27T13:31:57;14.45;;;4.70;;
67839;SDS011;54636;51.684;5.142;2024-01-27T13:34:26;19.80;;;5.07;;
67839;SDS011;54636;51.684;5.142;2024-01-27T13:36:53;19.60;;;5.50;;
67839;SDS011;54636;51.684;5.142;2024-01-27T13:39:19;15.13;;;4.85;;
67839;SDS011;54636;51.684;5.142;2024-01-27T13:41:44;12.88;;;4.47;;
67839;SDS011;54636;51.684;5.142;2024-01-27T13:44:09;16.33;;;5.07;;
67839;SDS011;54636;51.684;5.142;2024-01-27T13:46:35;18.70;;;5.82;;
67839;SDS011;54636;51.684;5.142;2024-01-27T13:49:00;13.20;;;5.25;;
67839;SDS011;54636;51.684;5.142;2024-01-27T13:51:25;23.17;;;5.20;;
67839;SDS011;54636;51.684;5.142;2024-01-27T13:53:51;19.45;;;6.35;;
67839;SDS011;54636;51.684;5.142;2024-01-27T13:56:16;12.70;;;4.60;;
67839;SDS011;54636;51.684;5.142;2024-01-27T13:58:42;17.40;;;4.70;;
67839;SDS011;54636;51.684;5.142;2024-01-27T14:01:07;17.80;;;4.93;;
67839;SDS011;54636;51.684;5.142;2024-01-27T14:03:33;24.50;;;6.13;;
67839;SDS011;54636;51.684;5.142;2024-01-27T14:05:58;13.70;;;4.75;;
67839;SDS011;54636;51.684;5.142;2024-01-27T14:08:24;16.98;;;4.05;;
67839;SDS011;54636;51.684;5.142;2024-01-27T14:10:49;19.60;;;4.78;;
67839;SDS011;54636;51.684;5.142;2024-01-27T14:13:17;18.35;;;5.30;;
67839;SDS011;54636;51.684;5.142;2024-01-27T14:15:43;18.98;;;4.47;;
67839;SDS011;54636;51.684;5.142;2024-01-27T14:18:08;22.48;;;5.55;;
67839;SDS011;54636;51.684;5.142;2024-01-27T14:20:36;12.77;;;4.75;;
67839;SDS011;54636;51.684;5.142;2024-01-27T14:23:02;15.18;;;4.68;;
67839;SDS011;54636;51.684;5.142;2024-01-27T14:25:28;18.27;;;4.80;;
67839;SDS011;54636;51.684;5.142;2024-01-27T14:27:54;15.52;;;4.53;;
67839;SDS011;54636;51.684;5.142;2024-01-27T14:30:20;21.35;;;5.30;;